»·PEaware :: SWA1098 KLAS-KSFO

SWA1098 :: KLAS-KSFO

FLIGHT INFORMATION

Flight Status: Arrived
Operator:
Southwest Airlines
More flights by this operator :: More flights under this callsign
Pilot: Matt F. (2723)
Aircraft: Unknown
(738)
More flights by this aircraft type
Origin: KLAS McCarran Intl
United States
Destination: KSFO San Francisco Intl
United States
More flights between these airports :: More routes between these airports
Route: +SHEAD9 KENNO INYOE DYAMD3
File this flight plan on PilotEdge
Remarks: CANNOT SEE OTHER TRAFFIC
Altitude:
(Current/Filed)
24,000ft
Speed:
(Current/Filed)
330kts
Departed: 08-Sep-16 02:30 PM
Arrived: 08-Sep-16 03:45 PM
Distance/Time
Traveled:
359nm/1:14
Distance/Time
To Go:
Arrived

Flight Plot

Page will automatically refresh every two minutes.

Flight plan parsing failed; only flown route is shown


Map Options




Map Legend


Flown Route
Filed Route
Departure Airport
Arrival Airport
Navaid (VOR, NDB)
Fix

Horizontal Profiles

Position Reports

Time Latitude Longitude Heading Altitude Ground
Speed
08-Sep-16 13:35 36.080356 -115.147666 52 2085ft 0kts
08-Sep-16 13:36 36.080356 -115.147666 52 2085ft 0kts
08-Sep-16 13:37 36.080356 -115.147666 52 2085ft 0kts
08-Sep-16 13:38 36.080356 -115.147666 52 2085ft 0kts
08-Sep-16 13:39 36.080356 -115.147666 52 2085ft 0kts
08-Sep-16 13:40 36.080356 -115.147666 52 2085ft 0kts
08-Sep-16 13:41 36.080356 -115.147666 52 2085ft 0kts
08-Sep-16 13:42 36.080356 -115.147666 52 2085ft 0kts
08-Sep-16 13:43 36.080356 -115.147666 52 2085ft 0kts
08-Sep-16 13:44 36.080356 -115.147666 52 2085ft 0kts
08-Sep-16 13:45 36.080356 -115.147666 52 2085ft 0kts
08-Sep-16 13:46 36.080356 -115.147666 52 2085ft 0kts
08-Sep-16 13:47 36.080356 -115.147666 52 2085ft 0kts
08-Sep-16 13:48 36.080356 -115.147666 52 2085ft 0kts
08-Sep-16 13:49 36.080356 -115.147666 52 2085ft 0kts
08-Sep-16 13:50 36.080356 -115.147666 52 2085ft 0kts
08-Sep-16 13:51 36.080356 -115.147666 52 2085ft 0kts
08-Sep-16 13:53 36.080356 -115.147666 52 2085ft 0kts
08-Sep-16 13:54 36.080356 -115.147666 52 2085ft 0kts
08-Sep-16 13:55 36.080356 -115.147666 52 2085ft 0kts
08-Sep-16 13:56 36.080356 -115.147666 52 2085ft 0kts
08-Sep-16 13:57 36.080356 -115.147666 52 2085ft 0kts
08-Sep-16 13:58 36.080356 -115.147666 52 2085ft 0kts
08-Sep-16 13:59 36.080356 -115.147666 52 2085ft 0kts
08-Sep-16 14:00 36.080356 -115.147666 52 2085ft 0kts
08-Sep-16 14:01 36.080356 -115.147666 52 2085ft 0kts
08-Sep-16 14:02 36.080356 -115.147666 52 2085ft 0kts
08-Sep-16 14:03 36.080356 -115.147666 52 2085ft 0kts
08-Sep-16 14:04 36.080096 -115.148102 71 2085ft 0kts
08-Sep-16 14:05 36.080141 -115.148211 142 2085ft 0kts
08-Sep-16 14:06 36.080141 -115.148211 142 2085ft 0kts
08-Sep-16 14:10 36.080356 -115.147666 52 2085ft 0kts
08-Sep-16 14:11 36.080356 -115.147666 52 2085ft 0kts
08-Sep-16 14:12 36.080356 -115.147666 52 2085ft 0kts
08-Sep-16 14:13 36.080102 -115.148170 119 2085ft 0kts
08-Sep-16 14:14 36.080143 -115.148217 142 2085ft 0kts
08-Sep-16 14:15 36.080143 -115.148217 142 2085ft 0kts
08-Sep-16 14:15 36.080143 -115.148217 142 2085ft 0kts
08-Sep-16 14:16 36.080143 -115.148217 142 2085ft 0kts
08-Sep-16 14:17 36.080143 -115.148217 142 2085ft 0kts
08-Sep-16 14:18 36.080143 -115.148217 142 2085ft 0kts
08-Sep-16 14:19 36.079330 -115.147538 147 2085ft 10kts
08-Sep-16 14:20 36.078252 -115.142631 90 2085ft 23kts
08-Sep-16 14:21 36.078253 -115.134938 90 2085ft 18kts
08-Sep-16 14:22 36.078569 -115.133476 26 2085ft 0kts
08-Sep-16 14:23 36.078569 -115.133476 26 2085ft 0kts
08-Sep-16 14:24 36.078762 -115.133058 97 2085ft 11kts
08-Sep-16 14:25 36.078249 -115.126531 87 2085ft 21kts
08-Sep-16 14:26 36.076399 -115.123358 260 2086ft 7kts
08-Sep-16 14:27 36.076591 -115.150247 266 2575ft 170kts
08-Sep-16 14:28 36.076056 -115.216419 269 5437ft 210kts
08-Sep-16 14:29 36.041867 -115.270808 198 7136ft 276kts
08-Sep-16 14:30 35.971960 -115.302634 207 7100ft 270kts
08-Sep-16 14:31 35.917223 -115.367908 225 9113ft 276kts
08-Sep-16 14:32 35.886901 -115.448184 270 11002ft 289kts
08-Sep-16 14:33 35.888735 -115.556331 272 11157ft 325kts
08-Sep-16 14:34 35.890822 -115.669067 272 13802ft 334kts
08-Sep-16 14:35 35.892821 -115.784255 272 16613ft 343kts
08-Sep-16 14:36 35.894729 -115.902538 272 19152ft 351kts
08-Sep-16 14:37 35.931776 -116.009581 308 21426ft 361kts
08-Sep-16 14:38 36.003915 -116.096264 314 23501ft 371kts
08-Sep-16 14:39 36.078967 -116.183095 313 24227ft 375kts
08-Sep-16 14:40 36.154503 -116.270533 312 24229ft 374kts
08-Sep-16 14:41 36.229789 -116.357852 313 24229ft 373kts
08-Sep-16 14:42 36.305554 -116.445785 313 24229ft 374kts
08-Sep-16 14:43 36.380755 -116.533061 313 24229ft 373kts
08-Sep-16 14:44 36.456178 -116.620540 313 24229ft 374kts
08-Sep-16 14:45 36.531282 -116.708863 313 24229ft 374kts
08-Sep-16 14:46 36.614036 -116.786771 325 24230ft 380kts
08-Sep-16 14:47 36.703776 -116.854870 324 24229ft 379kts
08-Sep-16 14:48 36.793012 -116.923214 324 24229ft 380kts
08-Sep-16 14:49 36.881974 -116.991393 324 24229ft 379kts
08-Sep-16 14:51 36.971454 -117.059966 323 24229ft 380kts
08-Sep-16 14:52 37.060424 -117.128198 323 24229ft 379kts
08-Sep-16 14:53 37.149974 -117.196828 324 24229ft 379kts
08-Sep-16 14:54 37.239708 -117.265716 323 24229ft 379kts
08-Sep-16 14:55 37.315529 -117.350561 297 24236ft 369kts
08-Sep-16 14:56 37.362173 -117.464314 296 24229ft 369kts
08-Sep-16 14:57 37.409336 -117.578010 296 24229ft 369kts
08-Sep-16 14:58 37.456297 -117.691480 296 24229ft 369kts
08-Sep-16 14:59 37.503575 -117.806077 296 24229ft 369kts
08-Sep-16 15:00 37.550387 -117.919757 296 24229ft 368kts
08-Sep-16 15:01 37.597609 -118.033829 296 24230ft 369kts
08-Sep-16 15:02 37.644097 -118.147291 296 24228ft 368kts
08-Sep-16 15:03 37.690915 -118.261536 296 24229ft 368kts
08-Sep-16 15:04 37.737513 -118.375745 296 24229ft 368kts
08-Sep-16 15:05 37.784216 -118.490459 295 24229ft 369kts
08-Sep-16 15:06 37.830830 -118.605162 296 24229ft 369kts
08-Sep-16 15:07 37.877412 -118.720272 295 24229ft 369kts
08-Sep-16 15:08 37.886573 -118.846060 265 24231ft 374kts
08-Sep-16 15:09 37.871644 -118.975582 265 24229ft 373kts
08-Sep-16 15:09 37.859287 -119.082994 265 24229ft 373kts
08-Sep-16 15:11 37.842083 -119.232762 264 24229ft 373kts
08-Sep-16 15:11 37.829455 -119.339944 264 24229ft 373kts
08-Sep-16 15:13 37.811599 -119.490387 264 24229ft 373kts
08-Sep-16 15:13 37.798778 -119.597642 264 24229ft 373kts
08-Sep-16 15:14 37.783181 -119.726929 264 24229ft 374kts
08-Sep-16 15:15 37.767513 -119.855341 264 24229ft 373kts
08-Sep-16 15:16 37.751714 -119.984474 264 24229ft 373kts
08-Sep-16 15:17 37.735791 -120.112770 263 24227ft 374kts
08-Sep-16 15:18 37.719872 -120.241927 264 24229ft 374kts
08-Sep-16 15:19 37.703613 -120.370626 264 24229ft 374kts
08-Sep-16 15:20 37.688310 -120.499099 265 24229ft 373kts
08-Sep-16 15:21 37.673189 -120.628109 265 24229ft 373kts
08-Sep-16 15:22 37.683685 -120.748363 252 23876ft 373kts
08-Sep-16 15:23 37.638521 -120.865396 269 22600ft 369kts
08-Sep-16 15:24 37.629726 -120.990073 263 20766ft 352kts
08-Sep-16 15:25 37.613664 -121.107661 263 19080ft 335kts
08-Sep-16 15:26 37.598740 -121.220501 262 17377ft 326kts
08-Sep-16 15:27 37.584934 -121.331805 264 15686ft 319kts
08-Sep-16 15:28 37.572372 -121.441533 263 14018ft 314kts
08-Sep-16 15:29 37.559856 -121.548876 263 12386ft 308kts
08-Sep-16 15:30 37.546751 -121.645924 255 11275ft 264kts
08-Sep-16 15:31 37.524542 -121.735444 256 9989ft 266kts
08-Sep-16 15:32 37.503442 -121.823247 256 8801ft 265kts
08-Sep-16 15:33 37.495846 -121.909893 284 7563ft 231kts
08-Sep-16 15:34 37.507413 -121.984864 283 6049ft 202kts
08-Sep-16 15:35 37.516907 -122.048034 283 4676ft 167kts
08-Sep-16 15:36 37.525327 -122.103853 283 3338ft 161kts
08-Sep-16 15:37 37.534227 -122.158613 285 3115ft 160kts
08-Sep-16 15:38 37.550541 -122.207633 299 2726ft 143kts
08-Sep-16 15:39 37.568226 -122.250016 299 1950ft 133kts
08-Sep-16 15:40 37.585554 -122.291059 299 1227ft 132kts
08-Sep-16 15:41 37.602688 -122.331658 300 519ft 130kts
08-Sep-16 15:42 37.617940 -122.367811 298 20ft 38kts
08-Sep-16 15:43 37.618665 -122.371704 211 19ft 0kts
08-Sep-16 15:44 37.618665 -122.371704 211 19ft 0kts
08-Sep-16 15:46 37.618665 -122.371704 211 19ft 0kts

Navigation Log

Ident Type
Flight plan parsing failed, navigation log unavailable